Time;durP1;ratioP1;P1;durP2;ratioP2;P2;SDS_P1;SDS_P2;PMS_P1;PMS_P2;Temp;Humidity;BMP_temperature;BMP_pressure;BME280_temperature;BME280_humidity;BME280_pressure;Samples;Min_cycle;Max_cycle;Signal;HPM_P1;HPM_P2
2023/02/25 00:00:33;;;;;;;17.13;1.88;;;3.80;99.90;;;;;;5014686;28;20041;-77
2023/02/25 00:02:59;;;;;;;13.70;1.60;;;3.80;99.90;;;;;;5014143;28;20495;-77
2023/02/25 00:05:26;;;;;;;18.52;1.35;;;3.80;99.90;;;;;;5034276;28;20406;-77
2023/02/25 00:07:53;;;;;;;12.63;1.70;;;3.80;99.90;;;;;;5029935;28;20041;-77
2023/02/25 00:10:20;;;;;;;16.98;2.10;;;3.80;99.90;;;;;;5032880;28;20052;-76
2023/02/25 00:12:46;;;;;;;15.17;1.80;;;3.80;99.90;;;;;;5014190;28;20044;-78
2023/02/25 00:15:12;;;;;;;22.13;2.30;;;3.80;99.90;;;;;;5013462;28;20056;-76
2023/02/25 00:17:39;;;;;;;18.90;2.75;;;3.70;99.90;;;;;;5013173;28;20542;-77
2023/02/25 00:20:11;;;;;;;20.55;1.88;;;3.70;99.90;;;;;;5032478;28;20033;-76
2023/02/25 00:22:37;;;;;;;19.77;2.22;;;3.70;99.90;;;;;;5029812;28;20597;-76
2023/02/25 00:25:04;;;;;;;17.40;1.85;;;3.60;99.90;;;;;;5013597;28;20055;-77
2023/02/25 00:27:30;;;;;;;24.20;2.10;;;3.60;99.90;;;;;;5030467;28;20029;-76
2023/02/25 00:29:56;;;;;;;12.82;1.83;;;3.60;99.90;;;;;;5029438;28;20409;-78
2023/02/25 00:32:23;;;;;;;16.63;1.30;;;3.60;99.90;;;;;;5013002;28;20036;-77
2023/02/25 00:34:50;;;;;;;14.18;2.13;;;3.70;99.90;;;;;;5011497;28;20496;-78
2023/02/25 00:37:17;;;;;;;15.70;1.80;;;3.70;99.90;;;;;;5014308;28;20436;-78
2023/02/25 00:39:44;;;;;;;16.93;1.43;;;3.70;99.90;;;;;;5013551;28;20048;-77
2023/02/25 00:42:13;;;;;;;20.13;2.30;;;3.70;99.90;;;;;;5014723;28;20036;-78
2023/02/25 00:44:49;;;;;;;10.32;1.60;;;3.70;99.90;;;;;;5026415;28;20040;-77
2023/02/25 00:47:18;;;;;;;9.23;1.10;;;3.70;99.90;;;;;;4999363;28;20052;-77
2023/02/25 00:49:49;;;;;;;11.85;1.10;;;3.70;99.90;;;;;;5030589;28;20081;-76
2023/02/25 00:52:15;;;;;;;10.40;1.23;;;3.80;99.90;;;;;;5015804;28;20435;-77
2023/02/25 00:54:42;;;;;;;9.95;1.02;;;3.80;99.90;;;;;;5029106;28;20029;-77
2023/02/25 00:57:09;;;;;;;9.98;1.05;;;3.80;99.90;;;;;;5032716;28;20032;-76
2023/02/25 00:59:35;;;;;;;10.32;1.27;;;3.80;99.90;;;;;;4995361;28;20041;-77
2023/02/25 01:02:02;;;;;;;18.35;1.55;;;3.80;99.90;;;;;;5029796;28;20032;-79
2023/02/25 01:04:28;;;;;;;13.10;1.85;;;3.80;99.90;;;;;;5027419;28;20159;-81
2023/02/25 01:06:54;;;;;;;13.68;1.15;;;3.80;99.90;;;;;;5030895;28;20491;-79
2023/02/25 01:09:21;;;;;;;23.15;2.97;;;3.80;99.90;;;;;;5027531;28;20047;-80
2023/02/25 01:11:48;;;;;;;11.88;1.55;;;3.80;99.90;;;;;;5032241;28;20059;-80
2023/02/25 01:14:19;;;;;;;21.98;1.83;;;3.80;99.90;;;;;;5028058;28;20045;-77
2023/02/25 01:16:46;;;;;;;10.30;1.63;;;3.70;99.90;;;;;;5031188;28;20037;-78
2023/02/25 01:19:15;;;;;;;15.52;1.63;;;3.60;99.90;;;;;;4997238;28;20036;-78
2023/02/25 01:21:44;;;;;;;13.65;1.45;;;3.40;99.90;;;;;;5017016;28;20507;-76
2023/02/25 01:24:17;;;;;;;15.90;1.52;;;3.40;99.90;;;;;;5010677;28;20051;-79
2023/02/25 01:26:45;;;;;;;8.65;1.30;;;3.30;99.90;;;;;;5014640;28;20037;-77
2023/02/25 01:29:16;;;;;;;12.63;1.20;;;3.20;99.90;;;;;;5011635;28;20048;-78
2023/02/25 01:31:43;;;;;;;21.10;2.40;;;3.20;99.90;;;;;;4997977;28;20040;-78
2023/02/25 01:34:14;;;;;;;20.17;1.73;;;3.20;99.90;;;;;;5026831;28;20037;-77
2023/02/25 01:36:41;;;;;;;13.23;2.20;;;3.20;99.90;;;;;;5030909;28;20045;-78
2023/02/25 01:39:09;;;;;;;19.77;2.10;;;3.20;99.90;;;;;;5032300;28;20029;-78
2023/02/25 01:41:36;;;;;;;19.33;1.57;;;3.20;99.90;;;;;;5015038;28;20049;-77
2023/02/25 01:44:23;;;;;;;11.97;1.33;;;3.20;99.90;;;;;;5010244;28;20044;-77
2023/02/25 01:46:52;;;;;;;11.50;1.30;;;3.20;99.90;;;;;;5013386;28;20041;-78
2023/02/25 01:49:35;;;;;;;28.27;2.00;;;3.20;99.90;;;;;;4994551;28;20041;-77
2023/02/25 01:52:12;;;;;;;14.30;1.70;;;3.20;99.90;;;;;;5011459;28;20048;-77
2023/02/25 01:54:38;;;;;;;19.55;1.83;;;3.10;99.90;;;;;;4997445;28;20044;-77
2023/02/25 01:57:08;;;;;;;21.35;2.95;;;3.10;99.90;;;;;;4999713;28;20040;-78
2023/02/25 01:59:35;;;;;;;15.20;1.70;;;3.20;99.90;;;;;;5027351;28;20033;-78
2023/02/25 02:02:02;;;;;;;16.73;1.63;;;3.20;99.90;;;;;;5031068;28;20029;-76
2023/02/25 02:04:30;;;;;;;13.38;1.35;;;3.30;99.90;;;;;;5028310;28;20701;-78
2023/02/25 02:06:57;;;;;;;16.05;1.63;;;3.30;99.90;;;;;;5029621;28;20055;-77
2023/02/25 02:09:27;;;;;;;19.77;1.33;;;3.40;99.90;;;;;;5026813;28;20044;-77
2023/02/25 02:12:00;;;;;;;16.80;1.60;;;3.40;99.90;;;;;;5030137;28;20036;-78
2023/02/25 02:14:34;;;;;;;13.52;1.10;;;3.50;99.90;;;;;;5027735;28;20618;-77
2023/02/25 02:17:20;;;;;;;18.20;1.73;;;3.50;99.90;;;;;;5032472;28;20052;-77
2023/02/25 02:20:13;;;;;;;16.23;1.80;;;3.60;99.90;;;;;;5044924;28;20033;-77
2023/02/25 02:23:20;;;;;;;16.30;1.43;;;3.60;99.90;;;;;;5009714;28;20044;-77
2023/02/25 02:26:47;;;;;;;8.43;1.10;;;3.60;99.90;;;;;;5013514;28;20060;-77
2023/02/25 02:29:31;;;;;;;7.60;0.60;;;3.70;99.90;;;;;;4954756;28;20069;-78
2023/02/25 02:32:09;;;;;;;9.10;1.00;;;3.70;99.90;;;;;;4973582;28;20210;-76
2023/02/25 02:35:05;;;;;;;12.83;0.83;;;3.70;99.90;;;;;;5014197;28;20403;-77
2023/02/25 02:37:39;;;;;;;7.32;1.10;;;3.70;99.90;;;;;;5008134;28;20420;-76
2023/02/25 02:40:18;;;;;;;14.37;1.07;;;3.80;99.90;;;;;;5027811;28;20044;-77
2023/02/25 02:42:54;;;;;;;12.98;1.23;;;3.80;99.90;;;;;;5013870;28;21120;-76
2023/02/25 02:45:33;;;;;;;8.68;0.85;;;3.80;99.90;;;;;;5027090;28;20033;-77
2023/02/25 02:48:04;;;;;;;7.97;0.77;;;3.80;99.90;;;;;;5015032;28;20062;-77
2023/02/25 02:50:39;;;;;;;9.75;0.85;;;3.80;99.90;;;;;;5016517;28;20055;-76
2023/02/25 02:53:15;;;;;;;10.82;1.02;;;3.80;99.90;;;;;;5031882;28;20040;-77
2023/02/25 02:55:47;;;;;;;18.97;1.90;;;3.80;99.90;;;;;;5033564;28;20037;-78
2023/02/25 02:58:31;;;;;;;16.70;1.92;;;3.80;99.90;;;;;;5032769;28;20048;-77
2023/02/25 03:01:08;;;;;;;21.57;1.90;;;3.80;99.90;;;;;;5015831;28;20574;-78
2023/02/25 03:03:46;;;;;;;15.90;1.63;;;3.70;99.90;;;;;;5034157;28;20515;-77
2023/02/25 03:06:20;;;;;;;11.80;2.97;;;3.80;99.90;;;;;;5020998;28;20041;-77
2023/02/25 03:08:53;;;;;;;17.63;1.60;;;3.80;99.90;;;;;;5013865;28;20036;-78
2023/02/25 03:11:21;;;;;;;16.67;1.90;;;3.80;99.90;;;;;;5034080;28;20065;-78
2023/02/25 03:13:49;;;;;;;19.15;1.90;;;3.80;99.90;;;;;;5031146;28;20036;-76
2023/02/25 03:16:21;;;;;;;22.50;2.80;;;3.80;99.90;;;;;;5020559;28;20041;-77
2023/02/25 03:19:04;;;;;;;24.67;2.47;;;3.80;99.90;;;;;;5032020;28;20387;-77
2023/02/25 03:21:40;;;;;;;23.70;1.75;;;3.80;99.90;;;;;;5020834;28;20044;-76
2023/02/25 03:24:16;;;;;;;19.15;2.33;;;3.80;99.90;;;;;;5015514;28;20452;-78
2023/02/25 03:26:42;;;;;;;16.50;1.95;;;3.80;99.90;;;;;;5019260;28;20128;-77
2023/02/25 03:29:19;;;;;;;15.98;2.28;;;3.80;99.90;;;;;;5013838;28;20037;-78
2023/02/25 03:32:10;;;;;;;26.45;1.67;;;3.80;99.90;;;;;;4999250;28;20041;-77
2023/02/25 03:34:42;;;;;;;23.48;2.03;;;3.90;99.90;;;;;;5030247;28;20037;-78
2023/02/25 03:37:15;;;;;;;24.10;2.78;;;3.80;99.90;;;;;;5034197;28;20028;-77
2023/02/25 03:39:46;;;;;;;19.33;1.90;;;3.80;99.90;;;;;;5030448;28;20033;-77
2023/02/25 03:42:22;;;;;;;19.63;3.45;;;3.80;99.90;;;;;;5015513;28;20076;-77
2023/02/25 03:44:52;;;;;;;18.95;1.85;;;3.80;99.90;;;;;;5032824;28;20024;-78
2023/02/25 03:47:20;;;;;;;21.17;1.93;;;3.70;99.90;;;;;;5030855;28;20044;-76
2023/02/25 03:50:09;;;;;;;11.07;1.38;;;3.70;99.90;;;;;;5015806;28;20041;-77
2023/02/25 03:52:39;;;;;;;16.80;1.77;;;3.60;99.90;;;;;;5030769;28;20047;-76
2023/02/25 03:55:16;;;;;;;21.75;2.90;;;3.50;99.90;;;;;;5022623;28;20040;-77
2023/02/25 03:57:45;;;;;;;21.10;1.90;;;3.50;99.90;;;;;;5031643;28;20036;-77
2023/02/25 04:00:30;;;;;;;14.52;1.23;;;3.50;99.90;;;;;;5014830;28;20047;-77
2023/02/25 04:02:57;;;;;;;17.57;1.40;;;3.40;99.90;;;;;;5011502;28;20037;-78
2023/02/25 04:05:27;;;;;;;20.50;1.97;;;3.40;99.90;;;;;;5032399;28;20111;-76
2023/02/25 04:07:55;;;;;;;19.15;2.28;;;3.40;99.90;;;;;;5031403;28;20581;-78
2023/02/25 04:10:22;;;;;;;17.47;1.87;;;3.40;99.90;;;;;;5031038;28;20049;-76
2023/02/25 04:12:51;;;;;;;25.02;2.60;;;3.50;99.90;;;;;;4996006;28;20057;-79
2023/02/25 04:15:19;;;;;;;19.67;2.50;;;3.60;99.90;;;;;;5012617;28;20603;-81
2023/02/25 04:17:46;;;;;;;23.60;2.30;;;3.60;99.90;;;;;;5027868;28;20041;-81
2023/02/25 04:20:15;;;;;;;19.40;2.47;;;3.60;99.90;;;;;;5031850;28;20036;-79
2023/02/25 04:22:41;;;;;;;29.67;2.33;;;3.60;99.90;;;;;;5028421;28;20045;-80
2023/02/25 04:25:08;;;;;;;25.50;2.80;;;3.60;99.90;;;;;;5014404;28;20140;-80
2023/02/25 04:27:34;;;;;;;13.70;2.00;;;3.60;99.90;;;;;;5029619;28;20048;-79
2023/02/25 04:30:00;;;;;;;14.93;1.58;;;3.50;99.90;;;;;;5028270;28;20037;-79
2023/02/25 04:32:27;;;;;;;20.90;2.15;;;3.50;99.90;;;;;;5028152;28;20037;-79
2023/02/25 04:34:53;;;;;;;16.77;2.03;;;3.50;99.90;;;;;;5030520;28;20041;-78
2023/02/25 04:37:19;;;;;;;20.83;1.85;;;3.40;99.90;;;;;;5015691;28;20068;-80
2023/02/25 04:39:46;;;;;;;13.85;1.85;;;3.50;99.90;;;;;;5029690;28;20403;-78
2023/02/25 04:42:12;;;;;;;21.20;1.92;;;3.50;99.90;;;;;;4996639;28;20037;-78
2023/02/25 04:44:38;;;;;;;18.17;2.95;;;3.50;99.90;;;;;;5028330;28;20044;-77
2023/02/25 04:47:04;;;;;;;13.30;2.00;;;3.50;99.90;;;;;;5000286;28;20048;-78
2023/02/25 04:49:31;;;;;;;21.52;1.88;;;3.40;99.90;;;;;;5027830;28;20491;-78
2023/02/25 04:51:58;;;;;;;15.70;1.50;;;3.40;99.90;;;;;;5031573;28;20514;-78
2023/02/25 04:54:24;;;;;;;16.87;1.63;;;3.40;99.90;;;;;;5044557;28;20610;-78
2023/02/25 04:56:51;;;;;;;21.05;2.22;;;3.30;99.90;;;;;;4999889;28;20047;-77
2023/02/25 04:59:17;;;;;;;18.07;1.97;;;3.30;99.90;;;;;;5028442;28;20032;-77
2023/02/25 05:01:43;;;;;;;17.52;1.75;;;3.20;99.90;;;;;;5012878;28;20098;-77
2023/02/25 05:04:10;;;;;;;24.02;2.50;;;3.20;99.90;;;;;;5009525;28;20033;-78
2023/02/25 05:06:38;;;;;;;21.55;2.65;;;3.20;99.90;;;;;;5030158;28;20036;-79
2023/02/25 05:09:04;;;;;;;17.48;1.88;;;3.30;99.90;;;;;;5013362;28;20037;-79
2023/02/25 05:11:30;;;;;;;18.25;1.63;;;3.30;99.90;;;;;;5032539;28;20037;-78
2023/02/25 05:13:57;;;;;;;24.30;2.13;;;3.30;99.90;;;;;;5010314;28;20662;-77
2023/02/25 05:16:24;;;;;;;19.20;1.93;;;3.20;99.90;;;;;;5031710;28;20041;-79
2023/02/25 05:18:50;;;;;;;14.80;1.47;;;3.20;99.90;;;;;;5027555;28;20392;-78
2023/02/25 05:21:20;;;;;;;24.23;2.33;;;3.20;99.90;;;;;;5012523;28;20036;-78
2023/02/25 05:23:48;;;;;;;16.27;2.88;;;3.20;99.90;;;;;;5027856;28;20040;-78
2023/02/25 05:26:16;;;;;;;22.75;2.08;;;3.20;99.90;;;;;;5012299;28;20453;-78
2023/02/25 05:28:43;;;;;;;22.73;2.10;;;3.20;99.90;;;;;;5027539;28;20040;-77
2023/02/25 05:31:11;;;;;;;18.73;2.25;;;3.30;99.90;;;;;;5029526;28;20040;-77
2023/02/25 05:33:38;;;;;;;27.83;3.03;;;3.30;99.90;;;;;;5012246;28;20040;-78
2023/02/25 05:36:09;;;;;;;20.07;2.13;;;3.30;99.90;;;;;;5032060;28;20033;-78
2023/02/25 05:38:36;;;;;;;26.80;2.67;;;3.40;99.90;;;;;;5011433;28;20368;-78
2023/02/25 05:41:04;;;;;;;21.52;2.50;;;3.40;99.90;;;;;;5011392;28;20052;-79
2023/02/25 05:43:31;;;;;;;20.17;2.23;;;3.40;99.90;;;;;;5009529;28;20048;-79
2023/02/25 05:46:00;;;;;;;18.90;2.42;;;3.40;99.90;;;;;;5013952;28;20035;-78
2023/02/25 05:48:26;;;;;;;20.00;2.15;;;3.40;99.90;;;;;;5027870;28;20037;-79
2023/02/25 05:51:10;;;;;;;15.25;1.40;;;3.40;99.90;;;;;;5028504;28;20575;-78
2023/02/25 05:53:36;;;;;;;17.93;1.80;;;3.40;99.90;;;;;;5026972;28;20040;-78
2023/02/25 05:56:05;;;;;;;12.90;1.85;;;3.40;99.90;;;;;;5012941;28;20032;-77
2023/02/25 05:58:31;;;;;;;16.35;1.77;;;3.40;99.90;;;;;;5029546;28;20037;-78
2023/02/25 06:00:58;;;;;;;31.03;3.40;;;3.30;99.90;;;;;;5030323;28;20392;-77
2023/02/25 06:03:25;;;;;;;16.87;1.10;;;3.20;99.90;;;;;;5028555;28;20419;-77
2023/02/25 06:05:52;;;;;;;27.13;2.50;;;3.20;99.90;;;;;;5012000;28;20033;-79
2023/02/25 06:08:18;;;;;;;23.93;2.20;;;3.20;99.90;;;;;;5027331;28;20036;-79
2023/02/25 06:10:44;;;;;;;12.23;1.30;;;3.20;99.90;;;;;;5029951;28;20032;-78
2023/02/25 06:13:11;;;;;;;20.57;2.20;;;3.20;99.90;;;;;;5026295;28;20044;-77
2023/02/25 06:15:39;;;;;;;19.90;2.20;;;3.20;99.90;;;;;;5030192;28;20052;-77
2023/02/25 06:18:06;;;;;;;15.10;1.73;;;3.20;99.90;;;;;;5027743;28;20033;-78
2023/02/25 06:20:34;;;;;;;16.05;1.27;;;3.30;99.90;;;;;;5010936;28;20041;-76
2023/02/25 06:23:01;;;;;;;16.05;1.23;;;3.30;99.90;;;;;;5025700;28;20507;-77
2023/02/25 06:25:28;;;;;;;16.00;1.43;;;3.30;99.90;;;;;;5013070;28;20053;-77
2023/02/25 06:27:59;;;;;;;14.13;2.03;;;3.30;99.90;;;;;;5027983;28;20041;-77
2023/02/25 06:30:27;;;;;;;12.37;1.97;;;3.30;99.90;;;;;;5012073;28;20028;-76
2023/02/25 06:32:53;;;;;;;10.23;1.40;;;3.30;99.90;;;;;;4991182;28;20420;-76
2023/02/25 06:35:22;;;;;;;18.33;1.57;;;3.30;99.90;;;;;;5030331;28;20024;-79
2023/02/25 06:37:58;;;;;;;17.07;2.17;;;3.20;99.90;;;;;;5026483;28;20045;-78
2023/02/25 06:40:26;;;;;;;16.47;1.23;;;3.20;99.90;;;;;;5027682;28;20720;-77
2023/02/25 06:42:52;;;;;;;15.03;2.00;;;3.20;99.90;;;;;;5026982;28;20036;-77
2023/02/25 06:45:18;;;;;;;17.60;1.73;;;3.20;99.90;;;;;;5030140;28;20598;-77
2023/02/25 06:47:45;;;;;;;24.08;2.08;;;3.20;99.90;;;;;;5026274;28;20032;-77
2023/02/25 06:50:11;;;;;;;19.63;2.07;;;3.20;99.90;;;;;;5026440;28;20045;-77
2023/02/25 06:52:37;;;;;;;18.75;3.03;;;3.30;99.90;;;;;;5024902;28;20076;-77
2023/02/25 06:55:05;;;;;;;25.97;2.87;;;3.40;99.90;;;;;;5029080;28;20033;-77
2023/02/25 06:57:32;;;;;;;26.00;3.22;;;3.40;99.90;;;;;;5011138;28;20037;-76
2023/02/25 06:59:59;;;;;;;21.90;2.70;;;3.50;99.90;;;;;;5025287;28;20037;-77
2023/02/25 07:02:25;;;;;;;15.50;1.87;;;3.50;99.90;;;;;;5026209;28;20048;-77
2023/02/25 07:04:53;;;;;;;24.87;2.73;;;3.50;99.90;;;;;;5010669;28;20484;-77
2023/02/25 07:07:20;;;;;;;22.63;2.53;;;3.60;99.90;;;;;;5028699;28;20084;-78
2023/02/25 07:09:47;;;;;;;15.60;1.47;;;3.60;99.90;;;;;;5026101;28;20045;-78
2023/02/25 07:12:13;;;;;;;19.77;1.58;;;3.60;99.90;;;;;;5028559;28;20491;-77
2023/02/25 07:14:40;;;;;;;9.35;1.45;;;3.60;99.90;;;;;;4994620;28;20514;-77
2023/02/25 07:17:06;;;;;;;17.25;1.45;;;3.60;99.90;;;;;;5011651;28;20055;-78
2023/02/25 07:19:32;;;;;;;13.02;1.17;;;3.70;99.90;;;;;;5027373;28;20040;-76
2023/02/25 07:21:58;;;;;;;18.33;1.40;;;3.70;99.90;;;;;;5030927;28;20029;-78
2023/02/25 07:24:25;;;;;;;11.38;1.73;;;3.70;99.90;;;;;;5026757;28;20040;-78
2023/02/25 07:26:54;;;;;;;16.60;2.20;;;3.80;99.90;;;;;;5030453;28;20036;-78
2023/02/25 07:29:21;;;;;;;11.00;1.00;;;3.80;99.90;;;;;;5026728;28;20036;-77
2023/02/25 07:31:47;;;;;;;17.47;1.33;;;3.80;99.90;;;;;;5029610;28;20139;-78
2023/02/25 07:34:14;;;;;;;13.27;1.00;;;3.90;99.90;;;;;;5028935;28;20936;-76
2023/02/25 07:36:40;;;;;;;21.60;1.73;;;3.90;99.90;;;;;;5034073;28;20506;-79
2023/02/25 07:39:09;;;;;;;15.90;2.10;;;4.00;99.90;;;;;;5015677;28;20036;-78
2023/02/25 07:41:36;;;;;;;13.83;2.77;;;4.00;99.90;;;;;;5031515;28;20040;-78
2023/02/25 07:44:05;;;;;;;11.35;2.28;;;4.00;99.90;;;;;;5030567;28;20029;-78
2023/02/25 07:46:32;;;;;;;12.10;1.27;;;4.00;99.90;;;;;;5031466;28;20037;-77
2023/02/25 07:48:58;;;;;;;12.88;1.77;;;4.10;99.90;;;;;;5032701;28;20041;-78
2023/02/25 07:51:25;;;;;;;11.13;2.05;;;4.20;99.90;;;;;;5014855;28;20392;-79
2023/02/25 07:53:53;;;;;;;11.55;0.90;;;4.20;99.90;;;;;;5030720;28;20041;-77
2023/02/25 07:56:23;;;;;;;14.15;1.65;;;4.30;99.90;;;;;;5017054;28;20041;-78
2023/02/25 07:58:50;;;;;;;11.32;1.20;;;4.40;99.90;;;;;;5030917;28;20037;-78
2023/02/25 08:01:23;;;;;;;14.00;1.83;;;4.50;99.90;;;;;;5013393;28;20735;-78
2023/02/25 08:03:54;;;;;;;13.75;1.95;;;4.70;99.90;;;;;;4996346;28;20025;-79
2023/02/25 08:06:21;;;;;;;14.57;1.03;;;4.80;99.90;;;;;;5031361;28;20032;-79
2023/02/25 08:08:51;;;;;;;16.90;2.13;;;4.90;99.90;;;;;;5032670;28;20033;-77
2023/02/25 08:11:19;;;;;;;12.05;1.23;;;5.00;99.90;;;;;;5032306;28;20041;-78
2023/02/25 08:13:45;;;;;;;15.55;1.08;;;5.00;99.90;;;;;;5031561;28;20037;-76
2023/02/25 08:16:14;;;;;;;17.13;1.75;;;4.90;99.90;;;;;;5017380;28;20049;-77
2023/02/25 08:18:43;;;;;;;11.68;1.15;;;4.90;99.90;;;;;;4998865;28;20044;-77
2023/02/25 08:21:12;;;;;;;9.73;1.08;;;4.90;99.90;;;;;;4999198;28;20622;-76
2023/02/25 08:23:38;;;;;;;11.20;1.27;;;5.00;99.90;;;;;;5008163;28;20067;-77
2023/02/25 08:26:06;;;;;;;15.85;1.73;;;5.10;99.90;;;;;;4997283;28;20682;-77
2023/02/25 08:28:32;;;;;;;14.45;1.42;;;5.10;99.90;;;;;;5014289;28;20045;-77
2023/02/25 08:30:59;;;;;;;16.80;1.85;;;5.10;99.90;;;;;;4981080;28;20038;-78
2023/02/25 08:33:26;;;;;;;12.88;1.67;;;5.10;99.90;;;;;;5010416;28;20045;-81
2023/02/25 08:35:52;;;;;;;12.35;2.95;;;5.20;99.90;;;;;;5014745;28;20041;-79
2023/02/25 08:38:19;;;;;;;23.65;5.95;;;5.20;99.90;;;;;;5010496;28;20037;-77
2023/02/25 08:40:45;;;;;;;19.42;4.50;;;5.20;99.90;;;;;;5013559;28;20274;-79
2023/02/25 08:43:11;;;;;;;7.88;1.98;;;5.20;99.90;;;;;;5007852;28;20045;-81
2023/02/25 08:45:40;;;;;;;14.43;2.60;;;5.20;99.90;;;;;;4984825;28;20060;-79
2023/02/25 08:48:08;;;;;;;8.98;0.80;;;5.30;99.90;;;;;;5013202;28;20056;-78
2023/02/25 08:50:34;;;;;;;7.38;0.60;;;5.30;99.90;;;;;;5011867;28;20033;-78
2023/02/25 08:53:01;;;;;;;5.78;0.63;;;5.30;99.90;;;;;;4991712;28;20418;-78
2023/02/25 08:55:28;;;;;;;6.90;0.65;;;5.30;99.90;;;;;;4995675;28;20041;-78
2023/02/25 08:57:54;;;;;;;13.15;1.20;;;5.30;99.90;;;;;;5011812;28;20038;-79
2023/02/25 09:00:24;;;;;;;6.00;0.68;;;5.40;99.90;;;;;;5012676;28;20040;-78
2023/02/25 09:02:50;;;;;;;9.63;0.90;;;5.40;99.90;;;;;;4992647;28;20241;-80
2023/02/25 09:05:16;;;;;;;5.97;0.82;;;5.40;99.90;;;;;;5012969;28;20071;-79
2023/02/25 09:07:43;;;;;;;6.32;0.50;;;5.30;99.90;;;;;;4994782;28;20047;-79
2023/02/25 09:10:11;;;;;;;5.47;0.70;;;5.30;99.90;;;;;;5010483;28;20033;-78
2023/02/25 09:12:38;;;;;;;7.30;0.50;;;5.30;99.90;;;;;;4993373;28;20042;-78
2023/02/25 09:15:06;;;;;;;3.35;0.50;;;5.30;99.90;;;;;;5021588;28;20071;-78
2023/02/25 09:17:32;;;;;;;2.40;0.60;;;5.30;99.90;;;;;;5004687;28;20044;-77
2023/02/25 09:20:00;;;;;;;4.38;0.85;;;5.40;99.90;;;;;;5002935;28;20044;-79
2023/02/25 09:22:27;;;;;;;8.13;1.15;;;5.50;99.90;;;;;;5033976;28;20039;-78
2023/02/25 09:24:54;;;;;;;7.43;0.75;;;5.60;99.90;;;;;;5013411;28;20048;-78
2023/02/25 09:27:20;;;;;;;4.30;1.10;;;5.70;99.90;;;;;;5030017;28;20036;-79
2023/02/25 09:29:47;;;;;;;5.45;1.27;;;5.90;99.90;;;;;;5030805;28;20044;-78
2023/02/25 09:32:19;;;;;;;5.45;0.77;;;6.00;99.90;;;;;;5029890;28;20059;-79
2023/02/25 09:34:47;;;;;;;;;;;6.00;99.90;;;;;;5011657;28;20037;-79
2023/02/25 09:37:15;;;;;;;6.80;0.60;;;5.90;99.90;;;;;;5029212;28;20303;-79
2023/02/25 09:39:41;;;;;;;5.75;0.50;;;5.90;99.90;;;;;;5030106;28;20036;-79
2023/02/25 09:42:21;;;;;;;2.17;0.50;;;5.90;99.90;;;;;;5029933;28;20056;-78
2023/02/25 09:45:00;;;;;;;2.70;0.45;;;5.80;99.90;;;;;;5027407;28;20033;-78
2023/02/25 09:47:49;;;;;;;3.38;0.45;;;5.90;99.90;;;;;;5011555;28;20432;-78
2023/02/25 09:50:24;;;;;;;5.18;0.70;;;6.00;99.90;;;;;;5011506;28;20068;-76
2023/02/25 09:53:14;;;;;;;3.83;0.98;;;6.00;99.90;;;;;;5025914;28;20051;-76
2023/02/25 09:55:46;;;;;;;4.53;0.50;;;6.20;99.90;;;;;;5012832;28;20037;-78
2023/02/25 09:58:42;;;;;;;6.97;0.82;;;6.30;99.90;;;;;;5028409;28;20040;-78
2023/02/25 10:01:33;;;;;;;3.55;0.55;;;6.40;99.90;;;;;;5028982;28;20036;-77
2023/02/25 10:04:26;;;;;;;3.92;0.50;;;6.30;99.90;;;;;;5007441;28;20037;-78
2023/02/25 10:06:54;;;;;;;5.70;0.50;;;6.10;99.90;;;;;;5031207;28;20055;-78
2023/02/25 10:09:24;;;;;;;4.90;0.50;;;5.90;99.90;;;;;;5028197;28;20505;-78
2023/02/25 10:12:28;;;;;;;3.38;0.63;;;5.70;99.90;;;;;;5028928;28;20554;-78
2023/02/25 10:15:12;;;;;;;5.00;0.60;;;5.60;99.90;;;;;;5028267;28;20064;-77
2023/02/25 10:18:02;;;;;;;6.55;1.27;;;5.80;99.90;;;;;;5029894;28;20039;-77
2023/02/25 10:20:37;;;;;;;5.05;0.90;;;5.90;99.90;;;;;;5012077;28;20041;-78
2023/02/25 10:23:23;;;;;;;5.65;0.77;;;6.30;99.90;;;;;;4994006;28;21055;-78
2023/02/25 10:26:02;;;;;;;7.30;0.73;;;6.70;99.90;;;;;;5029993;28;20028;-78
2023/02/25 10:28:31;;;;;;;4.88;0.90;;;7.30;99.90;;;;;;5014576;28;20600;-77
2023/02/25 10:31:13;;;;;;;9.73;1.08;;;7.70;99.90;;;;;;5030934;28;20032;-80
2023/02/25 10:33:40;;;;;;;9.82;1.95;;;8.10;99.90;;;;;;5025348;28;20040;-79
2023/02/25 10:36:18;;;;;;;12.52;2.38;;;8.40;99.90;;;;;;5013347;28;20064;-79
2023/02/25 10:38:51;;;;;;;8.07;2.10;;;8.70;99.90;;;;;;4994634;28;20036;-80
2023/02/25 10:41:21;;;;;;;9.65;0.60;;;8.60;99.90;;;;;;5015497;28;20045;-78
2023/02/25 10:43:49;;;;;;;8.68;1.08;;;8.30;99.90;;;;;;5027653;28;20589;-77
2023/02/25 10:46:22;;;;;;;7.57;0.90;;;7.90;99.90;;;;;;5030813;28;20041;-78
2023/02/25 10:48:57;;;;;;;8.48;0.98;;;7.60;99.90;;;;;;4993210;28;20056;-78
2023/02/25 10:51:26;;;;;;;7.32;0.88;;;7.10;99.90;;;;;;5011158;28;20043;-79
2023/02/25 10:53:52;;;;;;;6.68;0.80;;;6.80;99.90;;;;;;5007292;28;20041;-77
2023/02/25 10:56:20;;;;;;;6.60;1.23;;;6.50;99.90;;;;;;5028997;28;20522;-78
2023/02/25 10:59:21;;;;;;;4.00;0.77;;;6.30;99.90;;;;;;5028497;28;20037;-78
2023/02/25 11:01:48;;;;;;;5.10;0.60;;;6.10;99.90;;;;;;5028954;28;20388;-78
2023/02/25 11:04:18;;;;;;;4.47;0.50;;;5.90;99.90;;;;;;5008411;28;20033;-78
2023/02/25 11:06:46;;;;;;;3.25;0.52;;;5.80;99.90;;;;;;5015786;28;20347;-78
2023/02/25 11:09:19;;;;;;;5.57;1.38;;;5.80;99.90;;;;;;5030791;28;20044;-78
2023/02/25 11:11:57;;;;;;;3.60;0.60;;;5.70;99.90;;;;;;5015649;28;20051;-78
2023/02/25 11:14:32;;;;;;;5.38;0.65;;;5.70;99.90;;;;;;5027673;28;20064;-78
2023/02/25 11:17:04;;;;;;;5.22;0.45;;;5.60;99.90;;;;;;5032262;28;20041;-77
2023/02/25 11:20:01;;;;;;;10.13;0.90;;;5.70;99.90;;;;;;5032341;28;20047;-78
2023/02/25 11:22:41;;;;;;;4.93;0.82;;;6.30;99.90;;;;;;5016910;28;20048;-77
2023/02/25 11:25:22;;;;;;;7.85;1.58;;;7.00;99.90;;;;;;5014116;28;20474;-78
2023/02/25 11:27:57;;;;;;;9.10;1.02;;;7.40;99.90;;;;;;5029315;28;20041;-78
2023/02/25 11:30:34;;;;;;;5.93;0.95;;;7.30;99.90;;;;;;5014857;28;20041;-78
2023/02/25 11:33:04;;;;;;;7.63;0.80;;;7.00;99.90;;;;;;5030552;28;21956;-78
2023/02/25 11:35:36;;;;;;;9.50;1.02;;;6.80;99.90;;;;;;5035047;28;20036;-78
2023/02/25 11:38:24;;;;;;;9.35;0.90;;;6.70;99.90;;;;;;5013673;28;20476;-78
2023/02/25 11:40:51;;;;;;;4.65;1.05;;;6.60;99.90;;;;;;5030631;28;20033;-76
2023/02/25 11:43:19;;;;;;;16.33;7.30;;;6.60;99.90;;;;;;5010997;28;20033;-78
2023/02/25 11:46:26;;;;;;;9.07;2.13;;;6.60;99.90;;;;;;5031839;28;20041;-79
2023/02/25 11:49:04;;;;;;;7.82;0.88;;;6.70;99.90;;;;;;5027614;28;20609;-79
2023/02/25 11:51:50;;;;;;;11.30;1.15;;;6.90;99.90;;;;;;5030212;28;20045;-79
2023/02/25 11:54:42;;;;;;;7.55;1.25;;;6.90;99.90;;;;;;5026293;28;20037;-78
2023/02/25 11:57:21;;;;;;;10.85;0.70;;;7.00;99.90;;;;;;5031526;28;20277;-79
2023/02/25 12:00:18;;;;;;;7.50;0.80;;;7.10;99.90;;;;;;5029491;28;20041;-78
2023/02/25 12:03:09;;;;;;;8.40;1.08;;;7.30;99.90;;;;;;5009922;28;20041;-79
2023/02/25 12:05:50;;;;;;;6.93;0.82;;;7.20;99.90;;;;;;5012623;28;20506;-78
2023/02/25 12:08:31;;;;;;;7.32;1.13;;;7.10;99.90;;;;;;5029325;28;20072;-79
2023/02/25 12:11:29;;;;;;;6.57;1.35;;;7.00;99.90;;;;;;5028371;28;20055;-78
2023/02/25 12:14:59;;;;;;;8.90;0.85;;;6.90;99.90;;;;;;5025268;28;20041;-78
2023/02/25 12:17:45;;;;;;;7.72;1.05;;;7.20;99.90;;;;;;4991633;28;20044;-79
2023/02/25 12:20:45;;;;;;;4.90;1.02;;;8.20;99.90;;;;;;5008728;28;20049;-79
2023/02/25 12:23:30;;;;;;;9.48;1.10;;;9.40;99.90;;;;;;5009984;28;20045;-79
2023/02/25 12:26:10;;;;;;;6.45;0.80;;;10.10;99.90;;;;;;5017199;28;20204;-79
2023/02/25 12:28:57;;;;;;;6.45;1.08;;;9.70;99.90;;;;;;5029959;28;20029;-79
2023/02/25 12:32:04;;;;;;;9.55;0.80;;;9.30;99.90;;;;;;5015711;28;20284;-79
2023/02/25 12:35:05;;;;;;;6.85;0.73;;;9.00;99.90;;;;;;5028436;28;20033;-79
2023/02/25 12:38:00;;;;;;;6.53;1.35;;;8.90;99.90;;;;;;5028284;28;20036;-79
2023/02/25 12:40:57;;;;;;;8.05;1.08;;;8.80;99.90;;;;;;5003655;28;20057;-79
2023/02/25 12:43:38;;;;;;;6.65;0.90;;;8.80;99.90;;;;;;5010507;28;20044;-79
2023/02/25 12:46:40;;;;;;;6.20;0.68;;;9.40;99.90;;;;;;5015956;28;20044;-79
2023/02/25 12:49:38;;;;;;;7.38;0.68;;;10.80;99.90;;;;;;4949553;28;20096;-79
2023/02/25 12:52:17;;;;;;;6.43;0.60;;;11.10;99.90;;;;;;5030117;28;20033;-79
2023/02/25 12:55:05;;;;;;;8.30;0.75;;;11.20;99.90;;;;;;5027269;28;20041;-79
2023/02/25 12:58:09;;;;;;;10.23;1.23;;;10.50;99.90;;;;;;5031618;28;20044;-79
2023/02/25 13:01:04;;;;;;;4.97;0.82;;;10.30;99.90;;;;;;5012866;28;20040;-79
2023/02/25 13:03:56;;;;;;;4.40;0.75;;;10.80;99.50;;;;;;5026066;28;20028;-79
2023/02/25 13:06:44;;;;;;;5.97;0.90;;;11.50;98.10;;;;;;5031454;28;20488;-79
2023/02/25 13:09:41;;;;;;;5.78;0.60;;;12.20;95.10;;;;;;5011226;28;20411;-79
2023/02/25 13:12:18;;;;;;;6.78;1.15;;;12.30;93.70;;;;;;5030090;28;20044;-79
2023/02/25 13:15:17;;;;;;;4.85;0.57;;;11.60;93.60;;;;;;5026186;28;20056;-78
2023/02/25 13:18:05;;;;;;;6.85;0.82;;;10.80;94.20;;;;;;4996219;28;20036;-78
2023/02/25 13:20:42;;;;;;;9.15;0.93;;;9.90;93.30;;;;;;5030615;28;20036;-78